sensor_id;sensor_type;location;lat;lon;timestamp;P1;durP1;ratioP1;P2;durP2;ratioP2
35257;SDS011;21385;50.878;8.050;2023-02-21T00:02:04;23.27;;;16.05;;
35257;SDS011;21385;50.878;8.050;2023-02-21T00:04:48;18.60;;;16.52;;
35257;SDS011;21385;50.878;8.050;2023-02-21T00:07:32;35.78;;;17.88;;
35257;SDS011;21385;50.878;8.050;2023-02-21T00:10:17;20.52;;;14.65;;
35257;SDS011;21385;50.878;8.050;2023-02-21T00:13:01;22.33;;;13.23;;
35257;SDS011;21385;50.878;8.050;2023-02-21T00:15:45;26.75;;;15.32;;
35257;SDS011;21385;50.878;8.050;2023-02-21T00:18:33;17.85;;;13.55;;
35257;SDS011;21385;50.878;8.050;2023-02-21T00:21:18;30.42;;;14.05;;
35257;SDS011;21385;50.878;8.050;2023-02-21T00:24:03;18.98;;;11.73;;
35257;SDS011;21385;50.878;8.050;2023-02-21T00:26:47;16.08;;;11.32;;
35257;SDS011;21385;50.878;8.050;2023-02-21T00:29:31;17.67;;;11.63;;
35257;SDS011;21385;50.878;8.050;2023-02-21T00:32:15;21.35;;;12.57;;
35257;SDS011;21385;50.878;8.050;2023-02-21T00:35:00;14.48;;;12.98;;
35257;SDS011;21385;50.878;8.050;2023-02-21T00:37:44;13.55;;;10.70;;
35257;SDS011;21385;50.878;8.050;2023-02-21T00:40:32;16.00;;;13.57;;
35257;SDS011;21385;50.878;8.050;2023-02-21T00:43:16;15.05;;;11.82;;
35257;SDS011;21385;50.878;8.050;2023-02-21T00:46:00;16.52;;;12.38;;
35257;SDS011;21385;50.878;8.050;2023-02-21T00:48:45;20.05;;;13.38;;
35257;SDS011;21385;50.878;8.050;2023-02-21T00:51:29;20.85;;;11.18;;
35257;SDS011;21385;50.878;8.050;2023-02-21T00:54:13;16.40;;;12.30;;
35257;SDS011;21385;50.878;8.050;2023-02-21T00:56:57;16.95;;;12.25;;
35257;SDS011;21385;50.878;8.050;2023-02-21T00:59:41;17.20;;;11.38;;
35257;SDS011;21385;50.878;8.050;2023-02-21T01:02:25;15.13;;;11.10;;
35257;SDS011;21385;50.878;8.050;2023-02-21T01:05:09;20.30;;;10.50;;
35257;SDS011;21385;50.878;8.050;2023-02-21T01:07:53;17.38;;;12.55;;
35257;SDS011;21385;50.878;8.050;2023-02-21T01:10:37;21.35;;;12.55;;
35257;SDS011;21385;50.878;8.050;2023-02-21T01:13:21;18.67;;;12.73;;
35257;SDS011;21385;50.878;8.050;2023-02-21T01:16:06;28.45;;;12.20;;
35257;SDS011;21385;50.878;8.050;2023-02-21T01:18:50;17.48;;;12.50;;
35257;SDS011;21385;50.878;8.050;2023-02-21T01:21:35;15.38;;;11.43;;
35257;SDS011;21385;50.878;8.050;2023-02-21T01:24:19;14.57;;;11.20;;
35257;SDS011;21385;50.878;8.050;2023-02-21T01:27:03;14.43;;;11.85;;
35257;SDS011;21385;50.878;8.050;2023-02-21T01:29:47;16.48;;;12.02;;
35257;SDS011;21385;50.878;8.050;2023-02-21T01:32:31;19.48;;;11.32;;
35257;SDS011;21385;50.878;8.050;2023-02-21T01:35:15;15.98;;;13.70;;
35257;SDS011;21385;50.878;8.050;2023-02-21T01:37:59;12.82;;;11.43;;
35257;SDS011;21385;50.878;8.050;2023-02-21T01:40:43;17.10;;;12.38;;
35257;SDS011;21385;50.878;8.050;2023-02-21T01:43:28;15.02;;;9.98;;
35257;SDS011;21385;50.878;8.050;2023-02-21T01:46:16;15.27;;;11.30;;
35257;SDS011;21385;50.878;8.050;2023-02-21T01:49:04;19.67;;;12.30;;
35257;SDS011;21385;50.878;8.050;2023-02-21T01:51:51;27.58;;;12.27;;
35257;SDS011;21385;50.878;8.050;2023-02-21T01:54:38;19.95;;;12.90;;
35257;SDS011;21385;50.878;8.050;2023-02-21T01:57:26;22.77;;;11.77;;
35257;SDS011;21385;50.878;8.050;2023-02-21T02:00:12;20.75;;;13.20;;
35257;SDS011;21385;50.878;8.050;2023-02-21T02:03:00;20.15;;;12.43;;
35257;SDS011;21385;50.878;8.050;2023-02-21T02:05:48;23.00;;;12.40;;
35257;SDS011;21385;50.878;8.050;2023-02-21T02:08:34;24.70;;;11.98;;
35257;SDS011;21385;50.878;8.050;2023-02-21T02:11:22;27.23;;;15.15;;
35257;SDS011;21385;50.878;8.050;2023-02-21T02:39:39;20.48;;;13.38;;
35257;SDS011;21385;50.878;8.050;2023-02-21T02:44:49;22.85;;;13.95;;
35257;SDS011;21385;50.878;8.050;2023-02-21T02:47:24;16.83;;;12.60;;
35257;SDS011;21385;50.878;8.050;2023-02-21T02:49:53;32.22;;;16.90;;
35257;SDS011;21385;50.878;8.050;2023-02-21T02:52:22;17.95;;;12.90;;
35257;SDS011;21385;50.878;8.050;2023-02-21T02:55:01;16.52;;;11.32;;
35257;SDS011;21385;50.878;8.050;2023-02-21T02:57:30;18.42;;;12.30;;
35257;SDS011;21385;50.878;8.050;2023-02-21T03:00:05;36.10;;;14.65;;
35257;SDS011;21385;50.878;8.050;2023-02-21T03:05:27;21.10;;;11.75;;
35257;SDS011;21385;50.878;8.050;2023-02-21T03:11:05;27.45;;;13.55;;
35257;SDS011;21385;50.878;8.050;2023-02-21T03:13:55;21.88;;;13.60;;
35257;SDS011;21385;50.878;8.050;2023-02-21T03:16:30;26.52;;;12.60;;
35257;SDS011;21385;50.878;8.050;2023-02-21T03:21:29;21.55;;;13.07;;
35257;SDS011;21385;50.878;8.050;2023-02-21T03:24:01;20.23;;;13.18;;
35257;SDS011;21385;50.878;8.050;2023-02-21T03:26:31;19.83;;;14.55;;
35257;SDS011;21385;50.878;8.050;2023-02-21T03:29:00;19.15;;;12.13;;
35257;SDS011;21385;50.878;8.050;2023-02-21T03:31:29;24.65;;;16.45;;
35257;SDS011;21385;50.878;8.050;2023-02-21T03:33:59;19.23;;;14.07;;
35257;SDS011;21385;50.878;8.050;2023-02-21T03:36:26;24.67;;;14.93;;
35257;SDS011;21385;50.878;8.050;2023-02-21T03:38:51;22.20;;;13.40;;
35257;SDS011;21385;50.878;8.050;2023-02-21T03:41:17;41.97;;;14.70;;
35257;SDS011;21385;50.878;8.050;2023-02-21T03:43:43;19.88;;;14.45;;
35257;SDS011;21385;50.878;8.050;2023-02-21T03:46:08;37.47;;;16.13;;
35257;SDS011;21385;50.878;8.050;2023-02-21T03:48:34;35.53;;;16.30;;
35257;SDS011;21385;50.878;8.050;2023-02-21T03:51:00;24.33;;;14.57;;
35257;SDS011;21385;50.878;8.050;2023-02-21T03:53:25;41.75;;;18.27;;
35257;SDS011;21385;50.878;8.050;2023-02-21T03:55:51;23.00;;;14.70;;
35257;SDS011;21385;50.878;8.050;2023-02-21T03:58:17;29.42;;;15.82;;
35257;SDS011;21385;50.878;8.050;2023-02-21T04:00:43;29.10;;;15.50;;
35257;SDS011;21385;50.878;8.050;2023-02-21T04:03:08;27.40;;;14.32;;
35257;SDS011;21385;50.878;8.050;2023-02-21T04:05:34;26.67;;;14.13;;
35257;SDS011;21385;50.878;8.050;2023-02-21T04:08:00;19.38;;;15.38;;
35257;SDS011;21385;50.878;8.050;2023-02-21T04:10:26;25.58;;;16.02;;
35257;SDS011;21385;50.878;8.050;2023-02-21T04:12:51;14.13;;;12.27;;
35257;SDS011;21385;50.878;8.050;2023-02-21T04:15:17;32.53;;;17.10;;
35257;SDS011;21385;50.878;8.050;2023-02-21T04:17:42;26.23;;;16.38;;
35257;SDS011;21385;50.878;8.050;2023-02-21T04:20:08;34.05;;;15.15;;
35257;SDS011;21385;50.878;8.050;2023-02-21T04:22:34;29.77;;;16.40;;
35257;SDS011;21385;50.878;8.050;2023-02-21T04:24:59;33.13;;;17.52;;
35257;SDS011;21385;50.878;8.050;2023-02-21T04:27:25;29.60;;;18.10;;
35257;SDS011;21385;50.878;8.050;2023-02-21T04:29:51;27.15;;;15.75;;
35257;SDS011;21385;50.878;8.050;2023-02-21T04:32:16;41.92;;;18.55;;
35257;SDS011;21385;50.878;8.050;2023-02-21T04:34:42;22.33;;;14.25;;
35257;SDS011;21385;50.878;8.050;2023-02-21T04:37:07;30.08;;;16.52;;
35257;SDS011;21385;50.878;8.050;2023-02-21T04:39:33;40.75;;;19.02;;
35257;SDS011;21385;50.878;8.050;2023-02-21T04:41:59;39.83;;;16.13;;
35257;SDS011;21385;50.878;8.050;2023-02-21T04:44:24;34.17;;;16.65;;
35257;SDS011;21385;50.878;8.050;2023-02-21T04:46:50;28.58;;;17.52;;
35257;SDS011;21385;50.878;8.050;2023-02-21T04:49:15;27.65;;;16.83;;
35257;SDS011;21385;50.878;8.050;2023-02-21T04:51:41;33.20;;;19.05;;
35257;SDS011;21385;50.878;8.050;2023-02-21T04:54:07;23.48;;;15.65;;
35257;SDS011;21385;50.878;8.050;2023-02-21T04:56:32;28.60;;;15.90;;
35257;SDS011;21385;50.878;8.050;2023-02-21T04:58:58;42.25;;;18.63;;
35257;SDS011;21385;50.878;8.050;2023-02-21T05:01:27;27.45;;;15.25;;
35257;SDS011;21385;50.878;8.050;2023-02-21T05:03:55;23.23;;;14.43;;
35257;SDS011;21385;50.878;8.050;2023-02-21T05:06:21;26.63;;;17.27;;
35257;SDS011;21385;50.878;8.050;2023-02-21T05:08:49;29.17;;;16.70;;
35257;SDS011;21385;50.878;8.050;2023-02-21T05:11:15;37.22;;;15.88;;
35257;SDS011;21385;50.878;8.050;2023-02-21T05:13:41;35.45;;;16.00;;
35257;SDS011;21385;50.878;8.050;2023-02-21T05:16:07;34.95;;;16.58;;
35257;SDS011;21385;50.878;8.050;2023-02-21T05:18:33;25.90;;;15.65;;
35257;SDS011;21385;50.878;8.050;2023-02-21T05:20:59;26.05;;;15.40;;
35257;SDS011;21385;50.878;8.050;2023-02-21T05:23:24;25.27;;;16.30;;
35257;SDS011;21385;50.878;8.050;2023-02-21T05:28:26;33.45;;;17.42;;
35257;SDS011;21385;50.878;8.050;2023-02-21T05:30:52;24.98;;;15.68;;
35257;SDS011;21385;50.878;8.050;2023-02-21T05:33:18;27.13;;;17.05;;
35257;SDS011;21385;50.878;8.050;2023-02-21T05:35:44;35.08;;;15.85;;
35257;SDS011;21385;50.878;8.050;2023-02-21T05:38:11;26.02;;;15.82;;
35257;SDS011;21385;50.878;8.050;2023-02-21T05:40:38;33.65;;;15.57;;
35257;SDS011;21385;50.878;8.050;2023-02-21T05:43:03;28.15;;;15.35;;
35257;SDS011;21385;50.878;8.050;2023-02-21T05:45:29;29.42;;;16.92;;
35257;SDS011;21385;50.878;8.050;2023-02-21T05:47:54;25.23;;;14.63;;
35257;SDS011;21385;50.878;8.050;2023-02-21T05:50:24;30.55;;;13.45;;
35257;SDS011;21385;50.878;8.050;2023-02-21T05:52:50;27.52;;;15.00;;
35257;SDS011;21385;50.878;8.050;2023-02-21T05:55:17;20.25;;;13.55;;
35257;SDS011;21385;50.878;8.050;2023-02-21T05:57:43;26.50;;;13.88;;
35257;SDS011;21385;50.878;8.050;2023-02-21T06:00:20;15.98;;;11.88;;
35257;SDS011;21385;50.878;8.050;2023-02-21T06:05:16;20.13;;;11.77;;
35257;SDS011;21385;50.878;8.050;2023-02-21T06:07:42;13.52;;;9.68;;
35257;SDS011;21385;50.878;8.050;2023-02-21T06:10:08;19.50;;;12.13;;
35257;SDS011;21385;50.878;8.050;2023-02-21T06:12:34;21.77;;;13.38;;
35257;SDS011;21385;50.878;8.050;2023-02-21T06:15:00;16.83;;;12.20;;
35257;SDS011;21385;50.878;8.050;2023-02-21T06:17:26;20.35;;;12.90;;
35257;SDS011;21385;50.878;8.050;2023-02-21T06:19:54;21.80;;;13.93;;
35257;SDS011;21385;50.878;8.050;2023-02-21T06:22:20;29.15;;;13.93;;
35257;SDS011;21385;50.878;8.050;2023-02-21T06:24:46;17.92;;;12.70;;
35257;SDS011;21385;50.878;8.050;2023-02-21T06:27:11;24.75;;;12.88;;
35257;SDS011;21385;50.878;8.050;2023-02-21T06:29:38;25.42;;;13.90;;
35257;SDS011;21385;50.878;8.050;2023-02-21T06:32:04;21.10;;;14.25;;
35257;SDS011;21385;50.878;8.050;2023-02-21T06:34:29;19.77;;;14.70;;
35257;SDS011;21385;50.878;8.050;2023-02-21T06:36:55;25.10;;;15.63;;
35257;SDS011;21385;50.878;8.050;2023-02-21T06:39:21;29.33;;;12.57;;
35257;SDS011;21385;50.878;8.050;2023-02-21T06:41:50;31.98;;;15.10;;
35257;SDS011;21385;50.878;8.050;2023-02-21T06:44:17;24.63;;;15.40;;
35257;SDS011;21385;50.878;8.050;2023-02-21T06:46:43;30.98;;;16.85;;
35257;SDS011;21385;50.878;8.050;2023-02-21T06:49:08;28.48;;;14.77;;
35257;SDS011;21385;50.878;8.050;2023-02-21T06:51:35;22.52;;;15.10;;
35257;SDS011;21385;50.878;8.050;2023-02-21T06:54:01;25.65;;;16.10;;
35257;SDS011;21385;50.878;8.050;2023-02-21T06:56:27;28.65;;;16.08;;
35257;SDS011;21385;50.878;8.050;2023-02-21T06:58:53;23.17;;;15.80;;
35257;SDS011;21385;50.878;8.050;2023-02-21T07:01:19;24.83;;;14.77;;
35257;SDS011;21385;50.878;8.050;2023-02-21T07:03:45;35.53;;;15.80;;
35257;SDS011;21385;50.878;8.050;2023-02-21T07:06:11;35.15;;;17.38;;
35257;SDS011;21385;50.878;8.050;2023-02-21T07:08:37;30.15;;;18.10;;
35257;SDS011;21385;50.878;8.050;2023-02-21T07:11:03;30.13;;;17.30;;
35257;SDS011;21385;50.878;8.050;2023-02-21T07:13:29;34.58;;;17.08;;
35257;SDS011;21385;50.878;8.050;2023-02-21T07:15:55;22.45;;;15.43;;
35257;SDS011;21385;50.878;8.050;2023-02-21T07:18:21;29.33;;;15.68;;
35257;SDS011;21385;50.878;8.050;2023-02-21T07:20:47;20.85;;;13.60;;
35257;SDS011;21385;50.878;8.050;2023-02-21T07:23:13;20.75;;;15.75;;
35257;SDS011;21385;50.878;8.050;2023-02-21T07:25:39;25.38;;;15.73;;
35257;SDS011;21385;50.878;8.050;2023-02-21T07:28:06;31.38;;;15.57;;
35257;SDS011;21385;50.878;8.050;2023-02-21T07:30:32;24.27;;;15.65;;
35257;SDS011;21385;50.878;8.050;2023-02-21T07:32:58;19.33;;;14.98;;
35257;SDS011;21385;50.878;8.050;2023-02-21T07:35:24;24.13;;;15.73;;
35257;SDS011;21385;50.878;8.050;2023-02-21T07:37:49;36.22;;;18.05;;
35257;SDS011;21385;50.878;8.050;2023-02-21T07:40:15;25.60;;;14.88;;
35257;SDS011;21385;50.878;8.050;2023-02-21T07:42:41;28.35;;;15.43;;
35257;SDS011;21385;50.878;8.050;2023-02-21T07:45:12;28.98;;;16.05;;
35257;SDS011;21385;50.878;8.050;2023-02-21T07:47:38;25.77;;;15.88;;
35257;SDS011;21385;50.878;8.050;2023-02-21T07:50:04;35.28;;;16.80;;
35257;SDS011;21385;50.878;8.050;2023-02-21T07:52:30;25.30;;;15.90;;
35257;SDS011;21385;50.878;8.050;2023-02-21T07:54:56;39.90;;;18.30;;
35257;SDS011;21385;50.878;8.050;2023-02-21T07:57:21;24.15;;;16.52;;
35257;SDS011;21385;50.878;8.050;2023-02-21T07:59:47;29.00;;;16.23;;
35257;SDS011;21385;50.878;8.050;2023-02-21T08:02:13;28.88;;;17.52;;
35257;SDS011;21385;50.878;8.050;2023-02-21T08:04:39;36.53;;;18.17;;
35257;SDS011;21385;50.878;8.050;2023-02-21T08:07:05;30.40;;;17.77;;
35257;SDS011;21385;50.878;8.050;2023-02-21T08:09:31;35.72;;;20.10;;
35257;SDS011;21385;50.878;8.050;2023-02-21T08:11:57;30.42;;;19.33;;
35257;SDS011;21385;50.878;8.050;2023-02-21T08:14:23;29.77;;;18.02;;
35257;SDS011;21385;50.878;8.050;2023-02-21T08:16:49;21.45;;;16.00;;
35257;SDS011;21385;50.878;8.050;2023-02-21T08:19:14;43.55;;;20.83;;
35257;SDS011;21385;50.878;8.050;2023-02-21T08:21:46;42.90;;;22.25;;
35257;SDS011;21385;50.878;8.050;2023-02-21T08:24:13;43.42;;;19.17;;
35257;SDS011;21385;50.878;8.050;2023-02-21T08:26:39;35.15;;;18.73;;
35257;SDS011;21385;50.878;8.050;2023-02-21T08:29:09;34.70;;;18.98;;
35257;SDS011;21385;50.878;8.050;2023-02-21T08:31:35;38.17;;;18.00;;
35257;SDS011;21385;50.878;8.050;2023-02-21T08:34:02;50.75;;;20.25;;
35257;SDS011;21385;50.878;8.050;2023-02-21T08:36:35;39.92;;;17.80;;
35257;SDS011;21385;50.878;8.050;2023-02-21T08:39:03;30.98;;;18.73;;
35257;SDS011;21385;50.878;8.050;2023-02-21T08:41:40;31.83;;;19.35;;
35257;SDS011;21385;50.878;8.050;2023-02-21T08:44:11;32.72;;;18.90;;
35257;SDS011;21385;50.878;8.050;2023-02-21T08:46:40;26.95;;;18.70;;
35257;SDS011;21385;50.878;8.050;2023-02-21T08:49:05;32.78;;;17.83;;
35257;SDS011;21385;50.878;8.050;2023-02-21T08:51:32;58.67;;;21.00;;
35257;SDS011;21385;50.878;8.050;2023-02-21T08:53:58;35.83;;;20.73;;
35257;SDS011;21385;50.878;8.050;2023-02-21T08:56:24;29.63;;;17.73;;
35257;SDS011;21385;50.878;8.050;2023-02-21T08:58:51;48.33;;;22.45;;
35257;SDS011;21385;50.878;8.050;2023-02-21T09:01:20;45.10;;;21.13;;
35257;SDS011;21385;50.878;8.050;2023-02-21T09:03:46;35.42;;;18.80;;
35257;SDS011;21385;50.878;8.050;2023-02-21T09:06:12;39.30;;;20.20;;
35257;SDS011;21385;50.878;8.050;2023-02-21T09:08:37;34.28;;;18.67;;
35257;SDS011;21385;50.878;8.050;2023-02-21T09:11:04;35.63;;;20.23;;
35257;SDS011;21385;50.878;8.050;2023-02-21T09:13:30;34.10;;;19.70;;
35257;SDS011;21385;50.878;8.050;2023-02-21T09:16:00;37.28;;;19.58;;
35257;SDS011;21385;50.878;8.050;2023-02-21T09:18:27;40.33;;;17.92;;
35257;SDS011;21385;50.878;8.050;2023-02-21T09:20:54;51.15;;;19.05;;
35257;SDS011;21385;50.878;8.050;2023-02-21T09:23:22;39.65;;;19.02;;
35257;SDS011;21385;50.878;8.050;2023-02-21T09:25:49;30.98;;;19.20;;
35257;SDS011;21385;50.878;8.050;2023-02-21T09:28:15;34.72;;;19.48;;
35257;SDS011;21385;50.878;8.050;2023-02-21T09:30:41;25.52;;;14.48;;
35257;SDS011;21385;50.878;8.050;2023-02-21T09:33:07;28.15;;;12.15;;
35257;SDS011;21385;50.878;8.050;2023-02-21T09:35:33;29.70;;;14.77;;
35257;SDS011;21385;50.878;8.050;2023-02-21T09:37:59;31.05;;;15.55;;
35257;SDS011;21385;50.878;8.050;2023-02-21T09:43:00;27.35;;;14.27;;
35257;SDS011;21385;50.878;8.050;2023-02-21T09:45:30;21.80;;;12.85;;
35257;SDS011;21385;50.878;8.050;2023-02-21T09:47:58;13.30;;;11.20;;
35257;SDS011;21385;50.878;8.050;2023-02-21T09:50:28;24.35;;;12.23;;
35257;SDS011;21385;50.878;8.050;2023-02-21T09:52:57;16.95;;;11.43;;
35257;SDS011;21385;50.878;8.050;2023-02-21T09:55:32;16.40;;;12.30;;
35257;SDS011;21385;50.878;8.050;2023-02-21T09:58:01;16.95;;;9.70;;
35257;SDS011;21385;50.878;8.050;2023-02-21T10:00:35;18.73;;;9.02;;
35257;SDS011;21385;50.878;8.050;2023-02-21T10:08:31;12.63;;;8.70;;
35257;SDS011;21385;50.878;8.050;2023-02-21T10:11:17;13.50;;;10.68;;
35257;SDS011;21385;50.878;8.050;2023-02-21T10:16:43;16.08;;;10.82;;
35257;SDS011;21385;50.878;8.050;2023-02-21T10:19:21;13.18;;;10.77;;
35257;SDS011;21385;50.878;8.050;2023-02-21T10:21:55;13.98;;;10.88;;
35257;SDS011;21385;50.878;8.050;2023-02-21T10:24:25;19.75;;;10.50;;
35257;SDS011;21385;50.878;8.050;2023-02-21T10:26:59;31.25;;;12.10;;
35257;SDS011;21385;50.878;8.050;2023-02-21T10:31:56;13.95;;;8.85;;
35257;SDS011;21385;50.878;8.050;2023-02-21T10:34:27;18.95;;;9.73;;
35257;SDS011;21385;50.878;8.050;2023-02-21T10:36:54;16.73;;;9.02;;
35257;SDS011;21385;50.878;8.050;2023-02-21T10:39:24;19.33;;;9.65;;
35257;SDS011;21385;50.878;8.050;2023-02-21T10:41:59;9.73;;;8.77;;
35257;SDS011;21385;50.878;8.050;2023-02-21T10:44:26;11.70;;;8.32;;
35257;SDS011;21385;50.878;8.050;2023-02-21T10:47:31;12.93;;;9.75;;
35257;SDS011;21385;50.878;8.050;2023-02-21T10:50:05;16.67;;;9.45;;
35257;SDS011;21385;50.878;8.050;2023-02-21T10:52:37;12.02;;;9.18;;
35257;SDS011;21385;50.878;8.050;2023-02-21T10:55:20;9.63;;;7.45;;
35257;SDS011;21385;50.878;8.050;2023-02-21T10:57:53;10.05;;;7.57;;
35257;SDS011;21385;50.878;8.050;2023-02-21T11:03:14;12.23;;;7.70;;
35257;SDS011;21385;50.878;8.050;2023-02-21T11:05:50;9.98;;;7.55;;
35257;SDS011;21385;50.878;8.050;2023-02-21T11:08:34;13.30;;;7.60;;
35257;SDS011;21385;50.878;8.050;2023-02-21T11:11:05;12.05;;;8.27;;
35257;SDS011;21385;50.878;8.050;2023-02-21T11:13:31;7.80;;;6.70;;
35257;SDS011;21385;50.878;8.050;2023-02-21T11:16:10;11.82;;;7.40;;
35257;SDS011;21385;50.878;8.050;2023-02-21T11:18:44;11.02;;;6.35;;
35257;SDS011;21385;50.878;8.050;2023-02-21T11:21:16;7.95;;;5.60;;
35257;SDS011;21385;50.878;8.050;2023-02-21T11:23:48;8.00;;;5.57;;
35257;SDS011;21385;50.878;8.050;2023-02-21T11:26:23;8.18;;;4.90;;
35257;SDS011;21385;50.878;8.050;2023-02-21T11:28:49;12.57;;;6.57;;
35257;SDS011;21385;50.878;8.050;2023-02-21T11:34:00;8.70;;;5.55;;
35257;SDS011;21385;50.878;8.050;2023-02-21T11:36:34;10.90;;;6.05;;
35257;SDS011;21385;50.878;8.050;2023-02-21T11:44:37;5.47;;;4.60;;
35257;SDS011;21385;50.878;8.050;2023-02-21T11:52:46;6.65;;;4.60;;
35257;SDS011;21385;50.878;8.050;2023-02-21T11:55:17;9.00;;;6.07;;
35257;SDS011;21385;50.878;8.050;2023-02-21T12:21:13;7.40;;;5.95;;
35257;SDS011;21385;50.878;8.050;2023-02-21T12:37:49;9.85;;;5.68;;
35257;SDS011;21385;50.878;8.050;2023-02-21T12:40:02;12.10;;;5.88;;
35257;SDS011;21385;50.878;8.050;2023-02-21T12:45:23;7.70;;;4.95;;
35257;SDS011;21385;50.878;8.050;2023-02-21T12:48:10;8.95;;;5.30;;
35257;SDS011;21385;50.878;8.050;2023-02-21T12:50:48;6.32;;;5.07;;
35257;SDS011;21385;50.878;8.050;2023-02-21T12:56:04;6.78;;;4.47;;
35257;SDS011;21385;50.878;8.050;2023-02-21T12:58:39;5.25;;;4.00;;
35257;SDS011;21385;50.878;8.050;2023-02-21T13:01:11;5.18;;;4.13;;
35257;SDS011;21385;50.878;8.050;2023-02-21T13:06:32;10.13;;;4.65;;
35257;SDS011;21385;50.878;8.050;2023-02-21T13:09:18;5.75;;;3.85;;
35257;SDS011;21385;50.878;8.050;2023-02-21T13:15:24;5.45;;;3.65;;
35257;SDS011;21385;50.878;8.050;2023-02-21T13:17:55;6.18;;;4.70;;
35257;SDS011;21385;50.878;8.050;2023-02-21T13:20:26;9.77;;;4.72;;
35257;SDS011;21385;50.878;8.050;2023-02-21T13:26:22;5.05;;;4.45;;
35257;SDS011;21385;50.878;8.050;2023-02-21T13:29:17;4.57;;;4.00;;
35257;SDS011;21385;50.878;8.050;2023-02-21T13:31:54;8.40;;;5.25;;
35257;SDS011;21385;50.878;8.050;2023-02-21T13:34:37;5.47;;;4.60;;
35257;SDS011;21385;50.878;8.050;2023-02-21T13:37:09;6.22;;;5.18;;
35257;SDS011;21385;50.878;8.050;2023-02-21T13:39:43;8.13;;;4.15;;
35257;SDS011;21385;50.878;8.050;2023-02-21T13:42:16;12.77;;;5.10;;
35257;SDS011;21385;50.878;8.050;2023-02-21T13:44:45;5.70;;;4.85;;
35257;SDS011;21385;50.878;8.050;2023-02-21T13:57:32;4.03;;;3.60;;
35257;SDS011;21385;50.878;8.050;2023-02-21T13:59:58;5.53;;;4.40;;
35257;SDS011;21385;50.878;8.050;2023-02-21T14:05:23;6.78;;;6.00;;
35257;SDS011;21385;50.878;8.050;2023-02-21T14:08:02;6.82;;;5.35;;
35257;SDS011;21385;50.878;8.050;2023-02-21T14:10:39;6.40;;;5.43;;
35257;SDS011;21385;50.878;8.050;2023-02-21T14:13:07;6.40;;;4.90;;
35257;SDS011;21385;50.878;8.050;2023-02-21T14:15:43;5.07;;;4.32;;
35257;SDS011;21385;50.878;8.050;2023-02-21T14:18:28;8.23;;;4.90;;
35257;SDS011;21385;50.878;8.050;2023-02-21T14:20:56;4.57;;;4.15;;
35257;SDS011;21385;50.878;8.050;2023-02-21T14:23:24;5.97;;;4.45;;
35257;SDS011;21385;50.878;8.050;2023-02-21T14:25:57;4.45;;;3.75;;
35257;SDS011;21385;50.878;8.050;2023-02-21T14:31:10;7.28;;;3.83;;
35257;SDS011;21385;50.878;8.050;2023-02-21T14:33:36;4.88;;;3.95;;
35257;SDS011;21385;50.878;8.050;2023-02-21T14:36:03;4.43;;;3.45;;
35257;SDS011;21385;50.878;8.050;2023-02-21T14:38:31;6.80;;;4.65;;
35257;SDS011;21385;50.878;8.050;2023-02-21T14:46:22;6.10;;;3.28;;
35257;SDS011;21385;50.878;8.050;2023-02-21T14:54:42;5.28;;;4.07;;
35257;SDS011;21385;50.878;8.050;2023-02-21T15:00:13;6.63;;;3.58;;
35257;SDS011;21385;50.878;8.050;2023-02-21T15:05:44;6.35;;;3.60;;
35257;SDS011;21385;50.878;8.050;2023-02-21T15:08:22;5.30;;;3.97;;
35257;SDS011;21385;50.878;8.050;2023-02-21T15:10:50;6.20;;;4.57;;
35257;SDS011;21385;50.878;8.050;2023-02-21T15:13:25;9.20;;;4.32;;
35257;SDS011;21385;50.878;8.050;2023-02-21T15:16:02;8.02;;;4.70;;
35257;SDS011;21385;50.878;8.050;2023-02-21T15:18:29;6.43;;;4.97;;
35257;SDS011;21385;50.878;8.050;2023-02-21T15:23:28;6.45;;;4.65;;
35257;SDS011;21385;50.878;8.050;2023-02-21T15:25:56;7.65;;;4.55;;
35257;SDS011;21385;50.878;8.050;2023-02-21T15:28:26;7.28;;;4.82;;
35257;SDS011;21385;50.878;8.050;2023-02-21T15:30:56;6.33;;;3.53;;
35257;SDS011;21385;50.878;8.050;2023-02-21T15:33:23;8.25;;;4.72;;
35257;SDS011;21385;50.878;8.050;2023-02-21T15:35:52;6.28;;;3.92;;
35257;SDS011;21385;50.878;8.050;2023-02-21T15:40:58;4.40;;;4.00;;
35257;SDS011;21385;50.878;8.050;2023-02-21T15:43:48;4.25;;;3.85;;
35257;SDS011;21385;50.878;8.050;2023-02-21T15:46:13;7.20;;;4.05;;
35257;SDS011;21385;50.878;8.050;2023-02-21T15:48:43;6.30;;;4.85;;
35257;SDS011;21385;50.878;8.050;2023-02-21T15:51:09;4.90;;;4.30;;
35257;SDS011;21385;50.878;8.050;2023-02-21T15:53:37;9.23;;;4.60;;
35257;SDS011;21385;50.878;8.050;2023-02-21T15:56:17;4.20;;;3.38;;
35257;SDS011;21385;50.878;8.050;2023-02-21T16:01:28;5.28;;;3.92;;
35257;SDS011;21385;50.878;8.050;2023-02-21T16:04:12;5.85;;;4.35;;
35257;SDS011;21385;50.878;8.050;2023-02-21T16:06:43;5.25;;;4.70;;
35257;SDS011;21385;50.878;8.050;2023-02-21T16:14:45;4.97;;;3.65;;
35257;SDS011;21385;50.878;8.050;2023-02-21T16:19:43;6.57;;;4.97;;
35257;SDS011;21385;50.878;8.050;2023-02-21T16:22:13;7.03;;;4.70;;
35257;SDS011;21385;50.878;8.050;2023-02-21T16:24:45;6.65;;;4.43;;
35257;SDS011;21385;50.878;8.050;2023-02-21T16:27:13;8.50;;;4.75;;
35257;SDS011;21385;50.878;8.050;2023-02-21T16:29:39;5.00;;;4.05;;
35257;SDS011;21385;50.878;8.050;2023-02-21T16:32:08;6.00;;;4.60;;
35257;SDS011;21385;50.878;8.050;2023-02-21T16:34:39;6.30;;;4.63;;
35257;SDS011;21385;50.878;8.050;2023-02-21T16:37:07;4.20;;;3.45;;
35257;SDS011;21385;50.878;8.050;2023-02-21T16:39:35;5.32;;;4.25;;
35257;SDS011;21385;50.878;8.050;2023-02-21T16:42:01;4.95;;;3.58;;
35257;SDS011;21385;50.878;8.050;2023-02-21T16:44:27;4.47;;;3.67;;
35257;SDS011;21385;50.878;8.050;2023-02-21T16:46:52;8.35;;;4.15;;
35257;SDS011;21385;50.878;8.050;2023-02-21T16:49:18;7.03;;;4.85;;
35257;SDS011;21385;50.878;8.050;2023-02-21T16:51:43;6.80;;;3.85;;
35257;SDS011;21385;50.878;8.050;2023-02-21T16:54:09;4.45;;;3.95;;
35257;SDS011;21385;50.878;8.050;2023-02-21T16:56:37;6.57;;;4.00;;
35257;SDS011;21385;50.878;8.050;2023-02-21T16:59:09;4.05;;;3.63;;
35257;SDS011;21385;50.878;8.050;2023-02-21T17:01:37;4.28;;;3.88;;
35257;SDS011;21385;50.878;8.050;2023-02-21T17:04:04;8.07;;;3.28;;
35257;SDS011;21385;50.878;8.050;2023-02-21T17:06:45;5.90;;;3.47;;
35257;SDS011;21385;50.878;8.050;2023-02-21T17:09:18;9.48;;;3.42;;
35257;SDS011;21385;50.878;8.050;2023-02-21T17:11:46;5.50;;;3.50;;
35257;SDS011;21385;50.878;8.050;2023-02-21T17:14:11;8.35;;;3.70;;
35257;SDS011;21385;50.878;8.050;2023-02-21T17:16:37;5.28;;;3.90;;
35257;SDS011;21385;50.878;8.050;2023-02-21T17:19:03;4.25;;;3.28;;
35257;SDS011;21385;50.878;8.050;2023-02-21T17:21:32;1.92;;;1.65;;
35257;SDS011;21385;50.878;8.050;2023-02-21T17:23:57;5.43;;;4.10;;
35257;SDS011;21385;50.878;8.050;2023-02-21T17:26:23;6.88;;;5.22;;
35257;SDS011;21385;50.878;8.050;2023-02-21T17:28:49;6.90;;;4.38;;
35257;SDS011;21385;50.878;8.050;2023-02-21T17:31:16;17.27;;;9.68;;
35257;SDS011;21385;50.878;8.050;2023-02-21T17:33:44;12.55;;;8.02;;
35257;SDS011;21385;50.878;8.050;2023-02-21T17:36:17;10.40;;;8.75;;
35257;SDS011;21385;50.878;8.050;2023-02-21T17:38:44;9.73;;;5.20;;
35257;SDS011;21385;50.878;8.050;2023-02-21T17:41:10;15.38;;;10.40;;
35257;SDS011;21385;50.878;8.050;2023-02-21T17:43:36;11.18;;;9.77;;
35257;SDS011;21385;50.878;8.050;2023-02-21T17:46:02;21.60;;;9.02;;
35257;SDS011;21385;50.878;8.050;2023-02-21T17:48:29;8.60;;;6.22;;